sensor_id;sensor_type;location;lat;lon;timestamp;pressure;altitude;pressure_sealevel;temperature;humidity
39405;BME280;25121;51.090;17.038;2023-03-20T00:00:16;100035.22;;;12.04;51.24
39405;BME280;25121;51.090;17.038;2023-03-20T00:01:39;100025.50;;;12.03;51.29
39405;BME280;25121;51.090;17.038;2023-03-20T00:03:02;100031.88;;;12.02;51.59
39405;BME280;25121;51.090;17.038;2023-03-20T00:04:24;100034.78;;;12.00;51.61
39405;BME280;25121;51.090;17.038;2023-03-20T00:05:45;100026.22;;;11.97;51.68
39405;BME280;25121;51.090;17.038;2023-03-20T00:07:08;100033.28;;;11.98;51.67
39405;BME280;25121;51.090;17.038;2023-03-20T00:08:32;100029.94;;;11.96;51.89
39405;BME280;25121;51.090;17.038;2023-03-20T00:09:53;100030.50;;;11.91;51.68
39405;BME280;25121;51.090;17.038;2023-03-20T00:11:26;100023.81;;;11.87;51.75
39405;BME280;25121;51.090;17.038;2023-03-20T00:12:50;100025.84;;;11.85;51.79
39405;BME280;25121;51.090;17.038;2023-03-20T00:14:13;100026.00;;;11.83;52.26
39405;BME280;25121;51.090;17.038;2023-03-20T00:15:37;100015.91;;;11.85;52.37
39405;BME280;25121;51.090;17.038;2023-03-20T00:17:08;100026.84;;;11.84;52.49
39405;BME280;25121;51.090;17.038;2023-03-20T00:18:29;100023.50;;;11.82;52.30
39405;BME280;25121;51.090;17.038;2023-03-20T00:19:51;100035.56;;;11.86;52.40
39405;BME280;25121;51.090;17.038;2023-03-20T00:21:18;100014.13;;;11.78;52.54
39405;BME280;25121;51.090;17.038;2023-03-20T00:22:40;100028.53;;;11.85;52.43
39405;BME280;25121;51.090;17.038;2023-03-20T00:24:05;100018.47;;;11.79;52.73
39405;BME280;25121;51.090;17.038;2023-03-20T00:25:27;100017.66;;;11.78;52.73
39405;BME280;25121;51.090;17.038;2023-03-20T00:26:52;100023.50;;;11.82;52.68
39405;BME280;25121;51.090;17.038;2023-03-20T00:28:36;100023.69;;;11.80;52.55
39405;BME280;25121;51.090;17.038;2023-03-20T00:30:00;100017.94;;;11.83;52.77
39405;BME280;25121;51.090;17.038;2023-03-20T00:31:24;100020.63;;;11.83;52.81
39405;BME280;25121;51.090;17.038;2023-03-20T00:32:51;100020.63;;;11.83;52.59
39405;BME280;25121;51.090;17.038;2023-03-20T00:34:17;100018.09;;;11.82;52.75
39405;BME280;25121;51.090;17.038;2023-03-20T00:35:40;100019.97;;;11.81;52.75
39405;BME280;25121;51.090;17.038;2023-03-20T00:37:01;100024.16;;;11.84;52.68
39405;BME280;25121;51.090;17.038;2023-03-20T00:38:24;100021.63;;;11.82;52.90
39405;BME280;25121;51.090;17.038;2023-03-20T00:39:47;100017.75;;;11.85;52.89
39405;BME280;25121;51.090;17.038;2023-03-20T00:41:19;100003.09;;;11.73;53.05
39405;BME280;25121;51.090;17.038;2023-03-20T00:42:44;100014.75;;;11.80;53.05
39405;BME280;25121;51.090;17.038;2023-03-20T00:44:18;100023.16;;;11.85;53.20
39405;BME280;25121;51.090;17.038;2023-03-20T00:45:44;100025.84;;;11.85;53.16
39405;BME280;25121;51.090;17.038;2023-03-20T00:47:11;99979.97;;;11.63;53.01
39405;BME280;25121;51.090;17.038;2023-03-20T00:48:36;100019.41;;;11.86;53.16
39405;BME280;25121;51.090;17.038;2023-03-20T00:49:59;100010.22;;;11.80;53.13
39405;BME280;25121;51.090;17.038;2023-03-20T00:51:24;100018.75;;;11.84;53.32
39405;BME280;25121;51.090;17.038;2023-03-20T00:52:46;100009.03;;;11.83;53.29
39405;BME280;25121;51.090;17.038;2023-03-20T00:54:09;100017.09;;;11.83;53.40
39405;BME280;25121;51.090;17.038;2023-03-20T00:55:33;100009.09;;;11.75;53.39
39405;BME280;25121;51.090;17.038;2023-03-20T00:56:59;100000.41;;;11.73;53.68
39405;BME280;25121;51.090;17.038;2023-03-20T00:58:22;100015.41;;;11.82;53.76
39405;BME280;25121;51.090;17.038;2023-03-20T00:59:51;100021.47;;;11.84;53.70
39405;BME280;25121;51.090;17.038;2023-03-20T01:01:15;100014.41;;;11.83;54.06
39405;BME280;25121;51.090;17.038;2023-03-20T01:02:40;100021.47;;;11.84;54.06
39405;BME280;25121;51.090;17.038;2023-03-20T01:04:09;100017.94;;;11.83;54.19
39405;BME280;25121;51.090;17.038;2023-03-20T01:05:32;99974.69;;;11.55;54.17
39405;BME280;25121;51.090;17.038;2023-03-20T01:06:57;100023.81;;;11.87;54.41
39405;BME280;25121;51.090;17.038;2023-03-20T01:08:20;99985.13;;;11.65;54.38
39405;BME280;25121;51.090;17.038;2023-03-20T01:09:44;99983.97;;;11.68;54.54
39405;BME280;25121;51.090;17.038;2023-03-20T01:11:11;99972.25;;;11.60;54.70
39405;BME280;25121;51.090;17.038;2023-03-20T01:12:35;99957.94;;;11.60;54.70
39405;BME280;25121;51.090;17.038;2023-03-20T01:13:56;99982.75;;;11.70;55.05
39405;BME280;25121;51.090;17.038;2023-03-20T01:15:21;99956.66;;;11.56;54.89
39405;BME280;25121;51.090;17.038;2023-03-20T01:16:44;100008.97;;;11.91;55.04
39405;BME280;25121;51.090;17.038;2023-03-20T01:18:09;99975.50;;;11.71;55.05
39405;BME280;25121;51.090;17.038;2023-03-20T01:19:35;99968.16;;;11.64;55.05
39405;BME280;25121;51.090;17.038;2023-03-20T01:20:59;99966.31;;;11.65;55.34
39405;BME280;25121;51.090;17.038;2023-03-20T01:22:32;99999.56;;;11.87;55.49
39405;BME280;25121;51.090;17.038;2023-03-20T01:24:00;100005.97;;;11.86;55.56
39405;BME280;25121;51.090;17.038;2023-03-20T01:25:25;100000.56;;;11.86;55.58
39405;BME280;25121;51.090;17.038;2023-03-20T01:26:51;99972.34;;;11.67;55.65
39405;BME280;25121;51.090;17.038;2023-03-20T01:28:22;99973.81;;;11.70;56.03
39405;BME280;25121;51.090;17.038;2023-03-20T01:29:45;99998.25;;;11.83;55.85
39405;BME280;25121;51.090;17.038;2023-03-20T01:31:08;100008.31;;;11.89;55.89
39405;BME280;25121;51.090;17.038;2023-03-20T01:32:31;100020.00;;;11.96;56.04
39405;BME280;25121;51.090;17.038;2023-03-20T01:33:52;100020.84;;;11.97;56.16
39405;BME280;25121;51.090;17.038;2023-03-20T01:35:17;100021.38;;;11.92;55.97
39405;BME280;25121;51.090;17.038;2023-03-20T01:36:39;100020.19;;;11.95;56.04
39405;BME280;25121;51.090;17.038;2023-03-20T01:38:02;100014.16;;;11.93;56.40
39405;BME280;25121;51.090;17.038;2023-03-20T01:39:27;100018.53;;;11.94;56.65
39405;BME280;25121;51.090;17.038;2023-03-20T01:41:02;100016.59;;;11.88;56.62
39405;BME280;25121;51.090;17.038;2023-03-20T01:42:29;100013.69;;;11.89;56.65
39405;BME280;25121;51.090;17.038;2023-03-20T01:43:52;100020.75;;;11.90;56.54
39405;BME280;25121;51.090;17.038;2023-03-20T01:45:17;100018.59;;;11.85;56.81
39405;BME280;25121;51.090;17.038;2023-03-20T01:46:40;100023.63;;;11.89;57.26
39405;BME280;25121;51.090;17.038;2023-03-20T01:48:14;100024.47;;;11.89;57.44
39405;BME280;25121;51.090;17.038;2023-03-20T01:50:19;100025.66;;;11.87;57.79
39405;BME280;25121;51.090;17.038;2023-03-20T01:51:45;100024.81;;;11.86;57.51
39405;BME280;25121;51.090;17.038;2023-03-20T01:53:12;100029.34;;;11.85;57.89
39405;BME280;25121;51.090;17.038;2023-03-20T01:54:40;100033.44;;;11.81;57.52
39405;BME280;25121;51.090;17.038;2023-03-20T01:56:05;100029.91;;;11.81;57.67
39405;BME280;25121;51.090;17.038;2023-03-20T01:57:38;100022.84;;;11.80;58.09
39405;BME280;25121;51.090;17.038;2023-03-20T01:59:03;100031.56;;;11.82;58.33
39405;BME280;25121;51.090;17.038;2023-03-20T02:00:26;100033.25;;;11.83;58.52
39405;BME280;25121;51.090;17.038;2023-03-20T02:01:47;100020.16;;;11.80;58.63
39405;BME280;25121;51.090;17.038;2023-03-20T02:03:12;100030.75;;;11.81;58.87
39405;BME280;25121;51.090;17.038;2023-03-20T02:04:56;100026.72;;;11.77;59.24
39405;BME280;25121;51.090;17.038;2023-03-20T02:06:24;100021.72;;;11.74;59.30
39405;BME280;25121;51.090;17.038;2023-03-20T02:08:05;100030.91;;;11.80;59.55
39405;BME280;25121;51.090;17.038;2023-03-20T02:09:29;100027.94;;;11.75;59.63
39405;BME280;25121;51.090;17.038;2023-03-20T02:10:53;100031.13;;;11.78;59.97
39405;BME280;25121;51.090;17.038;2023-03-20T02:12:20;100029.81;;;11.74;60.26
39405;BME280;25121;51.090;17.038;2023-03-20T02:13:43;100026.44;;;11.72;60.60
39405;BME280;25121;51.090;17.038;2023-03-20T02:15:07;100028.81;;;11.75;60.84
39405;BME280;25121;51.090;17.038;2023-03-20T02:17:08;100024.34;;;11.68;61.04
39405;BME280;25121;51.090;17.038;2023-03-20T02:18:39;100028.53;;;11.70;61.11
39405;BME280;25121;51.090;17.038;2023-03-20T02:20:08;100029.34;;;11.71;61.58
39405;BME280;25121;51.090;17.038;2023-03-20T02:26:21;100031.75;;;11.66;62.17
39405;BME280;25121;51.090;17.038;2023-03-20T02:30:21;100031.09;;;11.63;63.01
39405;BME280;25121;51.090;17.038;2023-03-20T02:34:16;100026.72;;;11.62;63.66
39405;BME280;25121;51.090;17.038;2023-03-20T02:36:16;100027.09;;;11.59;63.78
39405;BME280;25121;51.090;17.038;2023-03-20T02:38:02;100026.91;;;11.61;63.87
39405;BME280;25121;51.090;17.038;2023-03-20T02:39:51;100019.22;;;11.58;63.97
39405;BME280;25121;51.090;17.038;2023-03-20T02:41:20;100024.78;;;11.56;63.43
39405;BME280;25121;51.090;17.038;2023-03-20T02:42:51;100021.44;;;11.54;63.54
39405;BME280;25121;51.090;17.038;2023-03-20T02:44:21;100033.50;;;11.58;64.08
39405;BME280;25121;51.090;17.038;2023-03-20T02:45:52;100028.50;;;11.55;64.30
39405;BME280;25121;51.090;17.038;2023-03-20T02:47:21;100028.13;;;11.58;64.61
39405;BME280;25121;51.090;17.038;2023-03-20T02:48:51;100021.91;;;11.58;64.75
39405;BME280;25121;51.090;17.038;2023-03-20T02:50:18;100026.25;;;11.59;64.77
39405;BME280;25121;51.090;17.038;2023-03-20T02:51:48;100017.34;;;11.58;64.92
39405;BME280;25121;51.090;17.038;2023-03-20T02:53:30;100029.13;;;11.57;65.00
39405;BME280;25121;51.090;17.038;2023-03-20T02:55:00;100026.44;;;11.57;65.07
39405;BME280;25121;51.090;17.038;2023-03-20T02:56:30;100019.22;;;11.58;65.02
39405;BME280;25121;51.090;17.038;2023-03-20T02:57:58;100011.69;;;11.53;65.04
39405;BME280;25121;51.090;17.038;2023-03-20T02:59:29;100022.91;;;11.57;65.38
39405;BME280;25121;51.090;17.038;2023-03-20T03:00:57;100024.94;;;11.55;65.34
39405;BME280;25121;51.090;17.038;2023-03-20T03:02:27;99990.97;;;11.39;65.36
39405;BME280;25121;51.090;17.038;2023-03-20T03:03:56;100022.09;;;11.56;65.51
39405;BME280;25121;51.090;17.038;2023-03-20T03:05:23;100020.97;;;11.51;65.56
39405;BME280;25121;51.090;17.038;2023-03-20T03:06:49;99989.47;;;11.36;65.77
39405;BME280;25121;51.090;17.038;2023-03-20T03:08:17;100027.63;;;11.55;65.69
39405;BME280;25121;51.090;17.038;2023-03-20T03:09:44;100025.97;;;11.54;65.99
39405;BME280;25121;51.090;17.038;2023-03-20T03:11:09;100025.81;;;11.55;65.55
39405;BME280;25121;51.090;17.038;2023-03-20T03:12:33;100022.47;;;11.53;65.96
39405;BME280;25121;51.090;17.038;2023-03-20T03:13:57;100023.13;;;11.55;66.01
39405;BME280;25121;51.090;17.038;2023-03-20T03:15:24;100019.41;;;11.56;66.19
39405;BME280;25121;51.090;17.038;2023-03-20T03:16:49;100018.72;;;11.54;66.19
39405;BME280;25121;51.090;17.038;2023-03-20T03:18:15;100018.56;;;11.56;66.35
39405;BME280;25121;51.090;17.038;2023-03-20T03:19:43;100016.53;;;11.58;66.32
39405;BME280;25121;51.090;17.038;2023-03-20T03:21:08;100016.88;;;11.55;66.47
39405;BME280;25121;51.090;17.038;2023-03-20T03:22:32;100025.44;;;11.58;66.35
39405;BME280;25121;51.090;17.038;2023-03-20T03:23:55;100025.59;;;11.57;66.34
39405;BME280;25121;51.090;17.038;2023-03-20T03:25:18;100017.25;;;11.52;66.00
39405;BME280;25121;51.090;17.038;2023-03-20T03:26:42;100014.94;;;11.49;65.88
39405;BME280;25121;51.090;17.038;2023-03-20T03:28:06;99995.69;;;11.37;66.11
39405;BME280;25121;51.090;17.038;2023-03-20T03:29:32;100011.03;;;11.51;66.21
39405;BME280;25121;51.090;17.038;2023-03-20T03:30:55;100016.59;;;11.50;66.45
39405;BME280;25121;51.090;17.038;2023-03-20T03:32:22;100020.78;;;11.52;66.41
39405;BME280;25121;51.090;17.038;2023-03-20T03:33:46;100012.41;;;11.47;66.63
39405;BME280;25121;51.090;17.038;2023-03-20T03:35:14;100018.06;;;11.52;66.84
39405;BME280;25121;51.090;17.038;2023-03-20T03:36:42;100018.94;;;11.53;66.83
39405;BME280;25121;51.090;17.038;2023-03-20T03:38:21;100015.75;;;11.49;66.87
39405;BME280;25121;51.090;17.038;2023-03-20T03:39:50;100004.34;;;11.47;66.89
39405;BME280;25121;51.090;17.038;2023-03-20T03:41:21;100018.06;;;11.52;66.89
39405;BME280;25121;51.090;17.038;2023-03-20T03:42:51;100016.03;;;11.54;66.88
39405;BME280;25121;51.090;17.038;2023-03-20T03:44:20;100012.34;;;11.55;67.14
39405;BME280;25121;51.090;17.038;2023-03-20T03:45:48;100010.88;;;11.53;67.04
39405;BME280;25121;51.090;17.038;2023-03-20T03:47:15;100022.25;;;11.55;67.00
39405;BME280;25121;51.090;17.038;2023-03-20T03:48:44;100015.50;;;11.59;67.05
39405;BME280;25121;51.090;17.038;2023-03-20T03:50:13;100004.28;;;11.55;67.02
39405;BME280;25121;51.090;17.038;2023-03-20T03:51:40;100011.97;;;11.58;67.14
39405;BME280;25121;51.090;17.038;2023-03-20T03:53:08;100008.25;;;11.59;67.32
39405;BME280;25121;51.090;17.038;2023-03-20T03:54:34;100000.38;;;11.58;67.24
39405;BME280;25121;51.090;17.038;2023-03-20T03:56:21;100011.97;;;11.58;67.17
39405;BME280;25121;51.090;17.038;2023-03-20T03:57:46;100005.94;;;11.56;67.36
39405;BME280;25121;51.090;17.038;2023-03-20T03:59:17;100004.91;;;11.57;67.13
39405;BME280;25121;51.090;17.038;2023-03-20T04:00:44;100002.88;;;11.59;67.52
39405;BME280;25121;51.090;17.038;2023-03-20T04:02:13;100012.63;;;11.60;67.60
39405;BME280;25121;51.090;17.038;2023-03-20T04:03:39;100010.13;;;11.59;67.38
39405;BME280;25121;51.090;17.038;2023-03-20T04:05:02;100017.81;;;11.62;67.84
39405;BME280;25121;51.090;17.038;2023-03-20T04:06:27;100009.75;;;11.62;67.68
39405;BME280;25121;51.090;17.038;2023-03-20T04:07:52;100005.56;;;11.59;67.79
39405;BME280;25121;51.090;17.038;2023-03-20T04:09:15;100020.34;;;11.63;67.47
39405;BME280;25121;51.090;17.038;2023-03-20T04:10:37;100019.31;;;11.64;67.88
39405;BME280;25121;51.090;17.038;2023-03-20T04:12:02;99988.56;;;11.44;67.67
39405;BME280;25121;51.090;17.038;2023-03-20T04:13:25;100013.91;;;11.64;67.86
39405;BME280;25121;51.090;17.038;2023-03-20T04:14:46;100019.97;;;11.67;67.85
39405;BME280;25121;51.090;17.038;2023-03-20T04:16:11;100015.78;;;11.64;68.00
39405;BME280;25121;51.090;17.038;2023-03-20T04:17:35;100024.34;;;11.68;67.99
39405;BME280;25121;51.090;17.038;2023-03-20T04:18:58;100020.78;;;11.67;67.96
39405;BME280;25121;51.090;17.038;2023-03-20T04:20:20;100031.56;;;11.67;67.93
39405;BME280;25121;51.090;17.038;2023-03-20T04:21:43;100021.00;;;11.66;68.04
39405;BME280;25121;51.090;17.038;2023-03-20T04:23:05;100027.19;;;11.66;68.25
39405;BME280;25121;51.090;17.038;2023-03-20T04:24:28;100024.69;;;11.64;68.37
39405;BME280;25121;51.090;17.038;2023-03-20T04:25:50;100015.59;;;11.66;68.33
39405;BME280;25121;51.090;17.038;2023-03-20T04:27:14;100013.75;;;11.66;68.28
39405;BME280;25121;51.090;17.038;2023-03-20T04:28:36;100021.66;;;11.68;68.63
39405;BME280;25121;51.090;17.038;2023-03-20T04:30:17;100017.44;;;11.65;68.50
39405;BME280;25121;51.090;17.038;2023-03-20T04:31:58;100021.16;;;11.64;68.57
39405;BME280;25121;51.090;17.038;2023-03-20T04:33:38;100019.03;;;11.59;68.78
39405;BME280;25121;51.090;17.038;2023-03-20T04:35:32;100021.53;;;11.61;68.53
39405;BME280;25121;51.090;17.038;2023-03-20T04:37:02;100018.19;;;11.59;69.07
39405;BME280;25121;51.090;17.038;2023-03-20T04:38:42;100016.03;;;11.54;69.07
39405;BME280;25121;51.090;17.038;2023-03-20T04:40:05;100025.97;;;11.54;69.35
39405;BME280;25121;51.090;17.038;2023-03-20T04:41:29;100020.97;;;11.51;69.47
39405;BME280;25121;51.090;17.038;2023-03-20T04:42:52;100023.16;;;11.47;69.52
39405;BME280;25121;51.090;17.038;2023-03-20T04:44:13;100019.81;;;11.45;69.63
39405;BME280;25121;51.090;17.038;2023-03-20T04:45:38;100022.34;;;11.47;69.92
39405;BME280;25121;51.090;17.038;2023-03-20T04:47:02;100027.06;;;11.45;69.97
39405;BME280;25121;51.090;17.038;2023-03-20T04:48:27;100019.53;;;11.40;69.98
39405;BME280;25121;51.090;17.038;2023-03-20T04:49:49;100024.75;;;11.41;70.32
39405;BME280;25121;51.090;17.038;2023-03-20T04:51:12;100029.31;;;11.41;70.25
39405;BME280;25121;51.090;17.038;2023-03-20T04:52:42;100028.81;;;11.37;70.48
39405;BME280;25121;51.090;17.038;2023-03-20T04:54:05;100032.53;;;11.36;70.58
39405;BME280;25121;51.090;17.038;2023-03-20T04:55:27;100009.94;;;11.23;70.43
39405;BME280;25121;51.090;17.038;2023-03-20T04:56:49;100037.09;;;11.36;71.05
39405;BME280;25121;51.090;17.038;2023-03-20T04:58:15;100036.25;;;11.35;70.98
39405;BME280;25121;51.090;17.038;2023-03-20T04:59:39;99986.56;;;11.08;71.34
39405;BME280;25121;51.090;17.038;2023-03-20T05:01:03;100038.09;;;11.35;71.27
39405;BME280;25121;51.090;17.038;2023-03-20T05:02:25;100023.22;;;11.24;71.02
39405;BME280;25121;51.090;17.038;2023-03-20T05:03:47;100032.91;;;11.33;71.26
39405;BME280;25121;51.090;17.038;2023-03-20T05:05:10;100037.25;;;11.34;71.29
39405;BME280;25121;51.090;17.038;2023-03-20T05:06:32;100040.78;;;11.35;71.44
39405;BME280;25121;51.090;17.038;2023-03-20T05:07:55;100042.63;;;11.34;71.59
39405;BME280;25121;51.090;17.038;2023-03-20T05:09:24;100024.16;;;11.31;71.49
39405;BME280;25121;51.090;17.038;2023-03-20T05:10:46;100034.41;;;11.36;71.35
39405;BME280;25121;51.090;17.038;2023-03-20T05:12:31;100032.03;;;11.33;71.48
39405;BME280;25121;51.090;17.038;2023-03-20T05:14:14;100029.00;;;11.36;71.53
39405;BME280;25121;51.090;17.038;2023-03-20T05:15:42;100009.09;;;11.22;71.49
39405;BME280;25121;51.090;17.038;2023-03-20T05:17:18;100028.81;;;11.37;71.43
39405;BME280;25121;51.090;17.038;2023-03-20T05:18:59;100035.06;;;11.38;71.47
39405;BME280;25121;51.090;17.038;2023-03-20T05:20:44;100030.66;;;11.37;71.27
39405;BME280;25121;51.090;17.038;2023-03-20T05:22:22;100033.19;;;11.38;71.65
39405;BME280;25121;51.090;17.038;2023-03-20T05:24:01;100035.69;;;11.40;71.59
39405;BME280;25121;51.090;17.038;2023-03-20T05:25:58;100029.31;;;11.41;71.37
39405;BME280;25121;51.090;17.038;2023-03-20T05:27:53;100028.81;;;11.37;71.32
39405;BME280;25121;51.090;17.038;2023-03-20T05:29:43;100007.09;;;11.24;71.40
39405;BME280;25121;51.090;17.038;2023-03-20T05:31:15;100030.66;;;11.37;71.28
39405;BME280;25121;51.090;17.038;2023-03-20T05:32:54;100035.13;;;11.45;71.47
39405;BME280;25121;51.090;17.038;2023-03-20T05:34:19;100031.50;;;11.37;71.25
39405;BME280;25121;51.090;17.038;2023-03-20T05:36:03;100017.59;;;11.34;71.40
39405;BME280;25121;51.090;17.038;2023-03-20T05:37:47;100049.00;;;11.56;71.14
39405;BME280;25121;51.090;17.038;2023-03-20T05:39:30;100035.44;;;11.50;71.20
39405;BME280;25121;51.090;17.038;2023-03-20T05:41:20;100051.31;;;11.59;71.01
39405;BME280;25121;51.090;17.038;2023-03-20T05:42:54;100052.91;;;11.69;70.74
39405;BME280;25121;51.090;17.038;2023-03-20T05:44:53;100051.34;;;11.74;70.73
39405;BME280;25121;51.090;17.038;2023-03-20T05:46:24;100046.63;;;11.76;70.71
39405;BME280;25121;51.090;17.038;2023-03-20T05:48:06;100046.91;;;11.81;70.62
39405;BME280;25121;51.090;17.038;2023-03-20T05:49:28;100054.72;;;11.91;70.79
39405;BME280;25121;51.090;17.038;2023-03-20T05:51:16;100046.28;;;11.94;70.52
39405;BME280;25121;51.090;17.038;2023-03-20T05:53:01;100047.38;;;12.00;70.16
39405;BME280;25121;51.090;17.038;2023-03-20T05:54:37;100049.53;;;12.04;70.01
39405;BME280;25121;51.090;17.038;2023-03-20T05:56:20;100057.53;;;12.13;69.85
39405;BME280;25121;51.090;17.038;2023-03-20T05:57:55;100035.50;;;12.09;69.95
39405;BME280;25121;51.090;17.038;2023-03-20T05:59:23;100055.94;;;12.18;69.82
39405;BME280;25121;51.090;17.038;2023-03-20T06:01:06;100051.00;;;12.22;69.66
39405;BME280;25121;51.090;17.038;2023-03-20T06:02:34;100051.28;;;12.27;69.84
39405;BME280;25121;51.090;17.038;2023-03-20T06:04:10;100046.38;;;12.31;69.72
39405;BME280;25121;51.090;17.038;2023-03-20T06:05:49;100048.50;;;12.35;69.66
39405;BME280;25121;51.090;17.038;2023-03-20T06:07:11;100053.88;;;12.50;69.40
39405;BME280;25121;51.090;17.038;2023-03-20T06:08:36;100051.06;;;12.58;69.05
39405;BME280;25121;51.090;17.038;2023-03-20T06:09:58;100048.91;;;12.68;68.73
39405;BME280;25121;51.090;17.038;2023-03-20T06:11:20;100056.03;;;12.76;68.91
39405;BME280;25121;51.090;17.038;2023-03-20T06:12:43;100051.09;;;12.80;68.74
39405;BME280;25121;51.090;17.038;2023-03-20T06:14:05;100052.59;;;12.82;68.70
39405;BME280;25121;51.090;17.038;2023-03-20T06:15:33;100055.53;;;12.87;68.65
39405;BME280;25121;51.090;17.038;2023-03-20T06:17:06;100043.47;;;12.83;68.38
39405;BME280;25121;51.090;17.038;2023-03-20T06:18:28;100051.81;;;12.88;68.32
39405;BME280;25121;51.090;17.038;2023-03-20T06:19:51;100052.03;;;12.87;68.19
39405;BME280;25121;51.090;17.038;2023-03-20T06:21:15;100053.19;;;12.84;68.11
39405;BME280;25121;51.090;17.038;2023-03-20T06:22:37;100063.63;;;12.87;68.21
39405;BME280;25121;51.090;17.038;2023-03-20T06:24:00;100060.09;;;12.87;68.25
39405;BME280;25121;51.090;17.038;2023-03-20T06:25:23;100069.69;;;12.89;67.93
39405;BME280;25121;51.090;17.038;2023-03-20T06:26:45;100059.06;;;12.88;68.03
39405;BME280;25121;51.090;17.038;2023-03-20T06:28:07;100058.88;;;12.89;67.99
39405;BME280;25121;51.090;17.038;2023-03-20T06:29:30;100069.28;;;12.92;67.93
39405;BME280;25121;51.090;17.038;2023-03-20T06:31:04;100071.78;;;12.94;68.01
39405;BME280;25121;51.090;17.038;2023-03-20T06:32:28;100079.03;;;12.93;67.74
39405;BME280;25121;51.090;17.038;2023-03-20T06:33:53;100069.28;;;12.92;67.82
39405;BME280;25121;51.090;17.038;2023-03-20T06:35:15;100074.28;;;12.96;67.76
39405;BME280;25121;51.090;17.038;2023-03-20T06:36:40;100072.25;;;12.98;67.67
39405;BME280;25121;51.090;17.038;2023-03-20T06:38:10;100070.00;;;13.01;67.64
39405;BME280;25121;51.090;17.038;2023-03-20T06:39:33;100078.16;;;13.08;67.54
39405;BME280;25121;51.090;17.038;2023-03-20T06:40:57;100077.78;;;13.11;67.65
39405;BME280;25121;51.090;17.038;2023-03-20T06:42:20;100070.75;;;13.17;67.36
39405;BME280;25121;51.090;17.038;2023-03-20T06:43:43;100074.56;;;13.22;67.04
39405;BME280;25121;51.090;17.038;2023-03-20T06:45:06;100086.31;;;13.29;67.30
39405;BME280;25121;51.090;17.038;2023-03-20T06:46:44;100083.00;;;13.34;67.36
39405;BME280;25121;51.090;17.038;2023-03-20T06:48:08;100079.09;;;13.37;67.22
39405;BME280;25121;51.090;17.038;2023-03-20T06:49:31;100085.13;;;13.39;67.36
39405;BME280;25121;51.090;17.038;2023-03-20T06:50:52;100076.84;;;13.40;67.23
39405;BME280;25121;51.090;17.038;2023-03-20T06:52:26;100078.72;;;13.40;67.30
39405;BME280;25121;51.090;17.038;2023-03-20T06:54:06;100083.63;;;13.36;67.17
39405;BME280;25121;51.090;17.038;2023-03-20T06:55:28;100078.06;;;13.38;67.04
39405;BME280;25121;51.090;17.038;2023-03-20T06:56:49;100082.41;;;13.39;67.40
39405;BME280;25121;51.090;17.038;2023-03-20T06:58:14;100072.84;;;13.36;67.53
39405;BME280;25121;51.090;17.038;2023-03-20T06:59:37;100081.16;;;13.34;67.41
39405;BME280;25121;51.090;17.038;2023-03-20T07:00:59;100087.38;;;13.35;67.45
39405;BME280;25121;51.090;17.038;2023-03-20T07:02:22;100084.03;;;13.33;67.63
39405;BME280;25121;51.090;17.038;2023-03-20T07:03:46;100078.81;;;13.31;67.91
39405;BME280;25121;51.090;17.038;2023-03-20T07:05:13;100081.22;;;13.26;68.12
39405;BME280;25121;51.090;17.038;2023-03-20T07:06:36;100079.56;;;13.25;68.28
39405;BME280;25121;51.090;17.038;2023-03-20T07:07:58;100074.56;;;13.22;68.66
39405;BME280;25121;51.090;17.038;2023-03-20T07:09:21;100071.63;;;13.17;68.70
39405;BME280;25121;51.090;17.038;2023-03-20T07:10:43;100084.25;;;13.17;68.70
39405;BME280;25121;51.090;17.038;2023-03-20T07:12:09;100078.03;;;13.16;68.92
39405;BME280;25121;51.090;17.038;2023-03-20T07:13:34;100081.94;;;13.13;69.27
39405;BME280;25121;51.090;17.038;2023-03-20T07:15:11;100079.63;;;13.10;69.11
39405;BME280;25121;51.090;17.038;2023-03-20T07:16:34;100082.78;;;13.14;69.33
39405;BME280;25121;51.090;17.038;2023-03-20T07:17:56;100083.63;;;13.14;69.60
39405;BME280;25121;51.090;17.038;2023-03-20T07:19:25;100086.13;;;13.16;69.51
39405;BME280;25121;51.090;17.038;2023-03-20T07:20:50;100085.28;;;13.15;69.35
39405;BME280;25121;51.090;17.038;2023-03-20T07:22:18;100082.59;;;13.15;69.26
39405;BME280;25121;51.090;17.038;2023-03-20T07:23:43;100089.47;;;13.18;69.43
39405;BME280;25121;51.090;17.038;2023-03-20T07:25:07;100079.06;;;13.15;69.35
39405;BME280;25121;51.090;17.038;2023-03-20T07:26:30;100081.84;;;13.22;69.33
39405;BME280;25121;51.090;17.038;2023-03-20T07:27:52;100090.22;;;13.27;69.44
39405;BME280;25121;51.090;17.038;2023-03-20T07:29:19;100084.13;;;13.25;69.20
39405;BME280;25121;51.090;17.038;2023-03-20T07:30:41;100085.38;;;13.22;69.18
39405;BME280;25121;51.090;17.038;2023-03-20T07:32:07;100090.22;;;13.27;69.09
39405;BME280;25121;51.090;17.038;2023-03-20T07:33:33;100094.72;;;13.26;69.12
39405;BME280;25121;51.090;17.038;2023-03-20T07:34:56;100093.75;;;13.27;68.89
39405;BME280;25121;51.090;17.038;2023-03-20T07:36:18;100090.00;;;13.28;68.95
39405;BME280;25121;51.090;17.038;2023-03-20T07:37:41;100086.31;;;13.29;69.09
39405;BME280;25121;51.090;17.038;2023-03-20T07:39:04;100082.38;;;13.32;68.95
39405;BME280;25121;51.090;17.038;2023-03-20T07:40:28;100095.16;;;13.45;68.73
39405;BME280;25121;51.090;17.038;2023-03-20T07:41:55;100092.31;;;13.53;68.59
39405;BME280;25121;51.090;17.038;2023-03-20T07:43:42;100086.59;;;13.63;68.31